Time;durP1;ratioP1;P1;durP2;ratioP2;P2;SDS_P1;SDS_P2;PMS_P1;PMS_P2;Temp;Humidity;BMP_temperature;BMP_pressure;BME280_temperature;BME280_humidity;BME280_pressure;Samples;Min_cycle;Max_cycle;Signal;HPM_P1;HPM_P2
2021/07/08 00:03:19;;;;;;;1999.90;999.90;;;;;;;19.49;78.55;101663.28;15851971;27;20067;-65
2021/07/08 00:10:55;;;;;;;1999.90;999.90;;;;;;;19.39;78.96;101656.19;15876884;27;20035;-65
2021/07/08 00:18:29;;;;;;;1999.90;999.90;;;;;;;19.34;78.40;101659.28;15898320;27;20130;-64
2021/07/08 00:26:03;;;;;;;1999.90;999.90;;;;;;;19.32;79.00;101658.84;15881085;27;20089;-66
2021/07/08 00:33:35;;;;;;;1999.90;999.90;;;;;;;19.07;80.24;101661.13;15850414;28;20171;-65
2021/07/08 00:41:08;;;;;;;1999.90;999.90;;;;;;;19.19;79.29;101646.84;15894092;27;20049;-66
2021/07/08 00:48:41;;;;;;;1999.90;999.90;;;;;;;18.96;80.27;101648.72;15881052;27;20043;-63
2021/07/08 00:56:17;;;;;;;1999.90;999.90;;;;;;;18.99;80.04;101648.81;15848427;27;20491;-66
2021/07/08 01:03:51;;;;;;;1999.90;999.90;;;;;;;18.65;84.03;101646.75;15894528;27;20496;-65
2021/07/08 01:11:25;;;;;;;1999.90;999.90;;;;;;;18.93;81.56;101646.63;15899754;27;20055;-63
2021/07/08 01:18:58;;;;;;;1999.90;999.90;;;;;;;19.04;80.92;101657.00;15883005;27;20047;-63
2021/07/08 01:26:32;;;;;;;1999.90;999.90;;;;;;;19.11;81.37;101650.69;15882665;27;20039;-65
2021/07/08 01:34:04;;;;;;;1999.90;999.90;;;;;;;19.09;81.74;101655.09;15843687;28;20143;-66
2021/07/08 01:41:38;;;;;;;1999.90;999.90;;;;;;;19.19;81.26;101646.84;15860927;28;20500;-65
2021/07/08 01:49:11;;;;;;;1999.90;999.90;;;;;;;19.09;80.67;101650.25;15843178;27;20067;-64
2021/07/08 01:56:47;;;;;;;1999.90;999.90;;;;;;;18.85;81.22;101639.16;15864132;27;20063;-64
2021/07/08 02:04:19;;;;;;;1999.90;999.90;;;;;;;18.92;80.42;101651.47;15909904;27;20066;-64
2021/07/08 02:11:52;;;;;;;1999.90;999.90;;;;;;;18.85;81.38;101641.97;15914500;27;20075;-65
2021/07/08 02:19:25;;;;;;;1999.90;999.90;;;;;;;18.85;81.58;101656.94;15896462;27;20051;-64
2021/07/08 02:26:58;;;;;;;1999.90;999.90;;;;;;;18.78;81.49;101665.28;15895671;27;20047;-65
2021/07/08 02:34:30;;;;;;;1999.90;999.90;;;;;;;18.50;84.08;101672.97;15877308;27;20530;-64
2021/07/08 02:42:05;;;;;;;1999.90;999.90;;;;;;;18.73;82.37;101674.84;15864400;27;20520;-64
2021/07/08 02:49:37;;;;;;;1999.90;999.90;;;;;;;18.59;82.58;101671.63;15867388;27;20123;-65
2021/07/08 02:57:10;;;;;;;1999.90;999.90;;;;;;;18.49;83.26;101671.34;15850740;27;20123;-65
2021/07/08 03:04:52;;;;;;;1999.90;999.90;;;;;;;18.32;85.01;101686.63;15905835;27;20389;-65
2021/07/08 03:12:37;;;;;;;1999.90;999.90;;;;;;;18.18;86.63;101667.31;15855757;27;20122;-66
2021/07/08 03:20:20;;;;;;;1999.90;999.90;;;;;;;18.29;86.11;101676.88;15892951;27;20543;-65
2021/07/08 03:28:10;;;;;;;1999.90;999.90;;;;;;;18.44;85.09;101680.91;15901401;27;20499;-67
2021/07/08 03:35:45;;;;;;;1999.90;999.90;;;;;;;18.61;84.15;101691.03;15852823;27;20513;-65
2021/07/08 03:43:46;;;;;;;1999.90;999.90;;;;;;;18.84;83.25;101699.72;15855854;27;20539;-65
2021/07/08 03:51:18;;;;;;;1999.90;999.90;;;;;;;18.79;82.61;101700.84;15896668;27;20100;-65
2021/07/08 03:58:53;;;;;;;1999.90;999.90;;;;;;;18.87;82.58;101705.50;15883984;27;20184;-65
2021/07/08 04:06:29;;;;;;;1999.90;999.90;;;;;;;19.25;80.80;101704.78;15882751;27;20043;-66
2021/07/08 04:14:13;;;;;;;1999.90;999.90;;;;;;;19.42;80.97;101697.91;15906929;27;20105;-66
2021/07/08 04:21:55;;;;;;;1999.90;999.90;;;;;;;19.42;81.79;101697.06;15889908;27;20055;-65
2021/07/08 04:29:38;;;;;;;1999.90;999.90;;;;;;;19.56;82.57;101703.06;15897171;27;20039;-65
2021/07/08 04:37:20;;;;;;;1999.90;999.90;;;;;;;19.57;83.22;101697.03;15851573;28;20039;-65
2021/07/08 04:44:57;;;;;;;1999.90;999.90;;;;;;;19.85;81.63;101677.00;15860106;27;20208;-66
2021/07/08 04:52:36;;;;;;;1999.90;999.90;;;;;;;20.33;80.64;101691.72;15861526;22;20403;-86
2021/07/08 05:00:30;;;;;;;1999.90;999.90;;;;;;;20.52;78.79;101692.88;15788396;28;20258;-86
2021/07/08 05:08:18;;;;;;;1999.90;999.90;;;;;;;20.60;78.45;101688.97;15841993;22;20447;-64
2021/07/08 05:16:04;;;;;;;1999.90;999.90;;;;;;;20.77;77.58;101687.66;15866477;27;20071;-63
2021/07/08 05:23:39;;;;;;;1999.90;999.90;;;;;;;20.84;79.57;101682.06;15848448;27;20047;-63
2021/07/08 05:31:16;;;;;;;1999.90;999.90;;;;;;;20.73;79.99;101688.41;15866495;28;20042;-64
2021/07/08 05:38:56;;;;;;;1999.90;999.90;;;;;;;20.52;79.92;101687.19;15905053;28;20088;-62
2021/07/08 05:46:33;;;;;;;1999.90;999.90;;;;;;;20.68;79.96;101693.59;15870148;28;20046;-63
2021/07/08 05:54:09;;;;;;;1999.90;999.90;;;;;;;20.76;78.19;101701.03;15923498;28;20126;-63
2021/07/08 06:01:49;;;;;;;;;;;;;;;20.43;79.77;101707.31;15905741;28;20047;-63
2021/07/08 06:09:38;;;;;;;1999.90;999.90;;;;;;;20.33;81.79;101710.75;15905010;28;19926;-63
2021/07/08 06:17:15;;;;;;;1999.90;999.90;;;;;;;20.31;81.66;101715.94;15922713;28;20091;-61
2021/07/08 06:24:51;;;;;;;1999.90;999.90;;;;;;;20.47;81.35;101716.69;15922840;28;20141;-63
2021/07/08 06:32:27;;;;;;;1999.90;999.90;;;;;;;20.38;81.54;101714.06;15922552;27;20470;-64
2021/07/08 06:39:59;;;;;;;1999.90;999.90;;;;;;;20.49;81.64;101719.97;15909862;27;20110;-63
2021/07/08 06:47:39;;;;;;;1999.90;999.90;;;;;;;20.34;82.52;101718.88;15930963;27;20055;-63
2021/07/08 06:55:13;;;;;;;1999.90;999.90;;;;;;;20.69;80.51;101738.56;15929833;27;20058;-62
2021/07/08 07:02:47;;;;;;;1999.90;999.90;;;;;;;20.49;82.47;101739.00;15914028;27;20047;-61
2021/07/08 07:10:23;;;;;;;1999.90;999.90;;;;;;;20.46;81.80;101729.25;15932268;27;20133;-61
2021/07/08 08:13:05;;;;;;;1999.90;999.90;;;;;;;20.68;83.11;101721.94;15924495;27;20387;-62
2021/07/08 08:20:45;;;;;;;1999.90;999.90;;;;;;;21.03;81.16;101719.69;15928373;27;20293;-62
2021/07/08 08:28:19;;;;;;;1999.90;999.90;;;;;;;20.83;82.55;101734.34;15927238;27;20086;-62
2021/07/08 08:35:54;;;;;;;1999.90;999.90;;;;;;;20.89;82.00;101741.34;15927032;27;20035;-62
2021/07/08 08:43:36;;;;;;;1999.90;999.90;;;;;;;21.03;81.27;101748.06;15925904;27;20051;-62
2021/07/08 08:51:12;;;;;;;1999.90;999.90;;;;;;;21.42;80.36;101747.91;15924784;27;20078;-62
2021/07/08 08:58:45;;;;;;;1999.90;999.90;;;;;;;21.36;78.67;101757.13;15906207;27;20506;-62
2021/07/08 09:06:20;;;;;;;1999.90;999.90;;;;;;;21.61;77.69;101750.63;15930211;27;20039;-61
2021/07/08 09:14:00;;;;;;;1999.90;999.90;;;;;;;22.31;75.80;101729.22;15908426;27;20047;-62
2021/07/08 09:21:36;;;;;;;1999.90;999.90;;;;;;;22.59;72.74;101737.22;15907750;27;20051;-61
2021/07/08 09:29:13;;;;;;;1999.90;999.90;;;;;;;22.53;71.52;101738.00;15899844;27;20443;-62
2021/07/08 09:36:49;;;;;;;1999.90;999.90;;;;;;;22.60;70.78;101735.19;15915358;28;20067;-61
2021/07/08 09:44:29;;;;;;;1999.90;999.90;;;;;;;22.80;67.36;101742.31;15922663;28;20430;-63
2021/07/08 09:52:12;;;;;;;1999.90;999.90;;;;;;;23.23;66.06;101737.00;15921851;28;20051;-60
2021/07/08 09:59:50;;;;;;;1999.90;999.90;;;;;;;22.92;66.45;101747.72;15927270;28;20388;-62
2021/07/08 10:07:26;;;;;;;1999.90;999.90;;;;;;;22.83;64.36;101766.34;15924707;27;20055;-62
2021/07/08 10:15:04;;;;;;;1999.90;999.90;;;;;;;22.80;65.46;101775.63;15935602;27;20067;-61
2021/07/08 10:22:39;;;;;;;1999.90;999.90;;;;;;;23.03;65.45;101784.81;15938354;27;20047;-62
2021/07/08 10:30:22;;;;;;;1999.90;999.90;;;;;;;22.86;65.28;101786.31;15936673;27;20490;-61
2021/07/08 10:37:54;;;;;;;1999.90;999.90;;;;;;;22.72;64.57;101775.59;15930945;27;20495;-60
2021/07/08 10:45:47;;;;;;;1999.90;999.90;;;;;;;23.36;64.54;101778.19;15914724;27;20047;-60
2021/07/08 10:53:41;;;;;;;1999.90;999.90;;;;;;;23.60;63.51;101782.47;15913800;27;20035;-58
2021/07/08 11:01:50;;;;;;;1999.90;999.90;;;;;;;23.70;62.29;101778.88;15932752;27;20047;-61
2021/07/08 11:09:23;;;;;;;1999.90;999.90;;;;;;;23.43;63.73;101774.56;15934826;27;20039;-59
2021/07/08 11:17:30;;;;;;;1999.90;999.90;;;;;;;23.33;62.50;101761.88;15912538;27;20112;-61
2021/07/08 11:25:14;;;;;;;1999.90;999.90;;;;;;;23.09;64.25;101771.88;15853463;27;20134;-61
2021/07/08 11:32:54;;;;;;;1999.90;999.90;;;;;;;23.27;63.34;101757.78;15910901;27;20055;-61
2021/07/08 11:40:42;;;;;;;1999.90;999.90;;;;;;;22.95;64.55;101751.84;15926526;27;20050;-59
2021/07/08 11:48:29;;;;;;;1999.90;999.90;;;;;;;23.14;64.63;101745.09;15927216;27;20035;-60
2021/07/08 11:56:06;;;;;;;1999.90;999.90;;;;;;;22.96;65.81;101740.06;15926822;27;20067;-57
2021/07/08 12:03:51;;;;;;;1999.90;999.90;;;;;;;23.24;69.60;101735.78;15928142;27;20051;-59
2021/07/08 12:11:33;;;;;;;1999.90;999.90;;;;;;;23.17;68.87;101724.34;15908597;27;20092;-60
2021/07/08 12:19:21;;;;;;;1999.90;999.90;;;;;;;23.01;69.31;101707.56;15924691;27;20457;-58
2021/07/08 12:27:15;;;;;;;1999.90;999.90;;;;;;;22.85;68.81;101710.69;15924870;27;20053;-60
2021/07/08 12:34:51;;;;;;;1999.90;999.90;;;;;;;22.82;68.28;101708.56;15924536;27;20054;-57
2021/07/08 12:42:31;;;;;;;1999.90;999.90;;;;;;;23.06;70.38;101697.84;15924585;27;20510;-57
2021/07/08 12:50:07;;;;;;;1999.90;999.90;;;;;;;22.84;69.58;101697.69;15905358;27;20074;-58
2021/07/08 12:57:39;;;;;;;1999.90;999.90;;;;;;;22.58;68.50;101710.00;15924698;27;20135;-57
2021/07/08 13:05:13;;;;;;;1999.90;999.90;;;;;;;22.63;70.34;101703.16;15911831;27;20667;-60
2021/07/08 13:12:58;;;;;;;1999.90;999.90;;;;;;;22.84;71.59;101703.38;15859685;28;20047;-60
2021/07/08 13:20:32;;;;;;;1999.90;999.90;;;;;;;22.70;71.23;101723.09;15861076;28;20052;-59
2021/07/08 13:28:22;;;;;;;1999.90;999.90;;;;;;;22.30;73.73;101727.59;15860478;28;20085;-58
2021/07/08 13:35:57;;;;;;;1999.90;999.90;;;;;;;22.54;74.83;101714.03;15842622;28;20048;-59
2021/07/08 13:43:34;;;;;;;1999.90;999.90;;;;;;;22.68;76.26;101726.34;15864330;28;20076;-60
2021/07/08 13:51:11;;;;;;;1999.90;999.90;;;;;;;22.56;72.26;101717.28;15873657;28;20488;-60
2021/07/08 13:58:52;;;;;;;1999.90;999.90;;;;;;;22.70;74.67;101708.88;15855159;28;20050;-57
2021/07/08 14:06:30;;;;;;;1999.90;999.90;;;;;;;22.58;75.68;101680.72;15862365;27;20123;-55
2021/07/08 14:14:07;;;;;;;1999.90;999.90;;;;;;;22.48;75.98;101662.34;15937284;27;20043;-57
2021/07/08 14:21:41;;;;;;;1999.90;999.90;;;;;;;22.23;76.99;101669.84;15918604;27;20058;-58
2021/07/08 14:29:14;;;;;;;1999.90;999.90;;;;;;;22.53;77.19;101727.44;15889792;27;20492;-58
2021/07/08 14:36:56;;;;;;;1999.90;999.90;;;;;;;22.79;75.34;101745.53;15852425;28;20032;-60
2021/07/08 14:44:40;;;;;;;1999.90;999.90;;;;;;;22.97;75.94;101692.47;15871334;28;20353;-58
2021/07/08 14:52:16;;;;;;;1999.90;999.90;;;;;;;22.70;79.07;101664.19;15852383;28;20048;-60
2021/07/08 14:59:59;;;;;;;1999.90;999.90;;;;;;;22.98;78.13;101662.81;15850508;28;20047;-59
2021/07/08 15:15:51;;;;;;;1999.90;999.90;;;;;;;22.87;77.58;101662.72;15868590;28;20109;-60
2021/07/08 15:23:31;;;;;;;1999.90;999.90;;;;;;;22.75;78.30;101657.31;15815051;28;20534;-57
2021/07/08 15:31:05;;;;;;;1999.90;999.90;;;;;;;22.83;77.13;101652.50;15834924;28;20040;-60
2021/07/08 15:39:01;;;;;;;1999.90;999.90;;;;;;;23.15;77.38;101661.31;15865516;28;21013;-60
2021/07/08 15:46:43;;;;;;;1999.90;999.90;;;;;;;23.22;77.00;101641.41;15846452;28;20046;-60
2021/07/08 15:54:18;;;;;;;1999.90;999.90;;;;;;;23.09;77.17;101629.53;15835476;28;20052;-57
2021/07/08 16:02:07;;;;;;;1999.90;999.90;;;;;;;23.30;77.31;101623.16;15862499;28;20050;-59
2021/07/08 16:10:14;;;;;;;1999.90;999.90;;;;;;;23.39;77.37;101597.16;15907525;27;20040;-55
2021/07/08 16:17:49;;;;;;;1999.90;999.90;;;;;;;23.44;76.60;101582.53;15876876;27;20135;-57
2021/07/08 16:25:28;;;;;;;1999.90;999.90;;;;;;;23.28;76.43;101580.03;15895730;27;20047;-56
2021/07/08 16:33:12;;;;;;;1999.90;999.90;;;;;;;22.95;72.65;101570.50;15926914;27;20364;-59
2021/07/08 16:40:46;;;;;;;1999.90;999.90;;;;;;;23.05;75.45;101551.88;15925397;27;20047;-59
2021/07/08 16:48:20;;;;;;;1999.90;999.90;;;;;;;22.77;71.78;101578.88;15907588;27;20039;-60
2021/07/08 16:55:56;;;;;;;1999.90;999.90;;;;;;;22.86;69.28;101595.66;15857038;22;20518;-58
2021/07/08 17:03:32;;;;;;;1999.90;999.90;;;;;;;22.66;71.59;101568.66;15766534;28;20062;-62
2021/07/08 17:11:13;;;;;;;1999.90;999.90;;;;;;;22.62;71.93;101556.44;15767701;28;20105;-57
2021/07/08 17:18:54;;;;;;;1999.90;999.90;;;;;;;22.68;72.03;101541.44;15756363;28;20142;-57
2021/07/08 17:26:28;;;;;;;1999.90;999.90;;;;;;;22.48;71.60;101532.34;15735766;28;20048;-57
2021/07/08 17:34:00;;;;;;;1999.90;999.90;;;;;;;22.69;72.21;101520.31;15797904;28;20270;-59
2021/07/08 17:41:35;;;;;;;1999.90;999.90;;;;;;;22.68;73.68;101493.06;15797414;28;20044;-56
2021/07/08 17:49:08;;;;;;;1999.90;999.90;;;;;;;22.55;75.00;101500.31;15782875;28;20139;-60
2021/07/08 17:56:42;;;;;;;1999.90;999.90;;;;;;;22.50;71.81;101491.34;15737800;28;20505;-56
2021/07/08 18:04:29;;;;;;;1999.90;999.90;;;;;;;22.22;72.94;101484.25;15733581;28;20052;-57
2021/07/08 18:12:11;;;;;;;1999.90;999.90;;;;;;;22.22;73.67;101472.06;15795418;28;20040;-57
2021/07/08 18:20:07;;;;;;;1999.90;999.90;;;;;;;22.15;74.02;101484.19;15795553;28;20052;-56
2021/07/08 18:27:52;;;;;;;;;;;;;;;;;;;;;
2021/07/08 18:35:28;;;;;;;1999.90;999.90;;;;;;;22.38;73.68;101518.06;15791620;28;20048;-61
2021/07/08 18:43:02;;;;;;;1999.90;999.90;;;;;;;22.19;74.86;101530.50;15801589;28;20036;-56
2021/07/08 18:50:36;;;;;;;1999.90;999.90;;;;;;;22.22;74.31;101552.47;15803180;28;20298;-59
2021/07/08 18:58:17;;;;;;;1999.90;999.90;;;;;;;21.99;76.13;101535.59;15802249;28;20468;-59
2021/07/08 19:05:49;;;;;;;1999.90;999.90;;;;;;;22.16;75.11;101554.03;15804875;28;20048;-57
2021/07/08 19:13:24;;;;;;;1999.90;999.90;;;;;;;22.14;75.79;101556.44;15788135;28;20050;-55
2021/07/08 19:20:56;;;;;;;1999.90;999.90;;;;;;;22.11;75.37;101560.09;15798837;28;20044;-56
2021/07/08 19:28:31;;;;;;;1999.90;999.90;;;;;;;22.15;76.19;101549.56;15796512;28;20071;-57
2021/07/08 19:36:04;;;;;;;1999.90;999.90;;;;;;;22.04;76.90;101572.16;15799743;28;20032;-58
2021/07/08 19:43:41;;;;;;;1999.90;999.90;;;;;;;22.07;77.69;101568.56;15797806;28;20054;-57
2021/07/08 19:59:04;;;;;;;1999.90;999.90;;;;;;;21.95;78.67;101557.47;15796238;28;20101;-55
2021/07/08 20:06:36;;;;;;;1999.90;999.90;;;;;;;21.82;78.63;101576.00;15787320;28;20139;-58
2021/07/08 20:14:11;;;;;;;;;;;;;;;21.81;78.78;101577.22;15737978;28;20056;-57
2021/07/08 20:21:49;;;;;;;1999.90;999.90;;;;;;;21.91;78.27;101582.19;15768457;28;19921;-63
2021/07/08 20:29:22;;;;;;;1999.90;999.90;;;;;;;21.98;78.33;101575.75;15777379;28;20063;-61
2021/07/08 20:36:54;;;;;;;1999.90;999.90;;;;;;;21.97;77.84;101545.69;15740264;28;20051;-61
2021/07/08 20:44:30;;;;;;;1999.90;999.90;;;;;;;21.67;79.25;101534.44;15771151;28;20500;-58
2021/07/08 20:52:04;;;;;;;1999.90;999.90;;;;;;;21.73;78.93;101530.84;15798941;28;20040;-57
2021/07/08 20:59:38;;;;;;;1999.90;999.90;;;;;;;21.87;78.33;101521.66;15799728;28;20079;-60
2021/07/08 21:07:31;;;;;;;1999.90;999.90;;;;;;;21.65;79.57;101514.13;15798919;28;20139;-57
2021/07/08 21:15:07;;;;;;;1999.90;999.90;;;;;;;21.56;79.67;101486.03;15774996;28;20044;-59
2021/07/08 21:22:40;;;;;;;1999.90;999.90;;;;;;;21.40;80.20;101520.34;15774593;28;20048;-57
2021/07/08 21:30:15;;;;;;;1999.90;999.90;;;;;;;21.53;79.09;101526.59;15781427;28;20486;-60
2021/07/08 21:37:49;;;;;;;1999.90;999.90;;;;;;;21.41;79.19;101521.19;15794854;28;20054;-56
2021/07/08 21:45:28;;;;;;;1999.90;999.90;;;;;;;21.36;79.46;101539.34;15796512;28;20381;-55
2021/07/08 21:53:05;;;;;;;1999.90;999.90;;;;;;;21.32;79.46;101510.13;15760135;28;20502;-55
2021/07/08 22:00:39;;;;;;;1999.90;999.90;;;;;;;21.29;79.63;101513.75;15793046;28;20044;-59
2021/07/08 22:08:24;;;;;;;1999.90;999.90;;;;;;;21.38;79.47;101524.78;15804944;28;20513;-60
2021/07/08 22:15:58;;;;;;;1999.90;999.90;;;;;;;21.19;80.16;101526.56;15808817;28;20048;-56
2021/07/08 22:23:52;;;;;;;;;;;;;;;;;;;;;
2021/07/08 22:31:28;;;;;;;1999.90;999.90;;;;;;;20.97;81.95;101507.63;15791015;28;20127;-58
2021/07/08 22:39:16;;;;;;;1999.90;999.90;;;;;;;21.02;81.11;101493.91;15805812;28;20408;-58
2021/07/08 22:46:56;;;;;;;1999.90;999.90;;;;;;;20.97;81.17;101476.44;15804951;28;20032;-59
2021/07/08 22:54:31;;;;;;;1999.90;999.90;;;;;;;20.84;81.47;101460.84;15800802;22;20133;-59
2021/07/08 23:02:15;;;;;;;1999.90;999.90;;;;;;;20.67;82.33;101462.25;15775731;28;20603;-58
2021/07/08 23:10:00;;;;;;;1999.90;999.90;;;;;;;20.77;81.72;101450.22;15819812;28;20396;-60
2021/07/08 23:17:48;;;;;;;1999.90;999.90;;;;;;;20.83;80.93;101428.00;15814560;28;20040;-60
2021/07/08 23:25:25;;;;;;;1999.90;999.90;;;;;;;20.87;80.28;101441.03;15858954;28;20047;-57
2021/07/08 23:32:59;;;;;;;1999.90;999.90;;;;;;;20.86;80.30;101447.94;15854866;28;20448;-58
2021/07/08 23:40:36;;;;;;;1999.90;999.90;;;;;;;20.87;79.87;101452.38;15802180;28;20046;-58
